This is the latest recevied weather packets stored in our database for station/object G0TQM-11. If no packets are shown the sender has not sent any weather packets the latest 10 day(s).
| Time | Temp. | Humidity | Pressure | Rain* | Wind** | Luminosity | Snow |
|---|---|---|---|---|---|---|---|
| 1788320508 | 22.22° C | 47% | 1013.4 hPa | - | - | - | - |
| 1788319307 | 22.78° C | 46% | 1013.4 hPa | - | - | - | - |
| 1788318107 | 22.22° C | 48% | 1013.4 hPa | - | - | - | - |
| 1788315707 | 21.11° C | 52% | 1013.8 hPa | - | - | - | - |
| 1788314507 | 20° C | 54% | 1013.9 hPa | - | - | - | - |
| 1788313307 | 20° C | 55% | 1013.9 hPa | - | - | - | - |
| 1788312115 | 20° C | 56% | 1013.9 hPa | - | - | - | - |
| 1788310915 | 20° C | 56% | 1014 hPa | - | - | - | - |
| 1788309715 | 20° C | 56% | 1014.1 hPa | - | - | - | - |
| 1788308514 | 20° C | 56% | 1014.2 hPa | - | - | - | - |
| 1788307314 | 20.56° C | 54% | 1014.2 hPa | - | - | - | - |
| 1788306114 | 21.11° C | 53% | 1014.3 hPa | - | - | - | - |
| 1788304914 | 21.11° C | 52% | 1014.4 hPa | - | - | - | - |
| 1788303714 | 20.56° C | 53% | 1014.3 hPa | - | - | - | - |
| 1788302514 | 20.56° C | 54% | 1014.3 hPa | - | - | - | - |
| 1788301314 | 20° C | 54% | 1014.3 hPa | - | - | - | - |
| 1788300114 | 20° C | 54% | 1014.5 hPa | - | - | - | - |
| 1788298914 | 20.56° C | 53% | 1014.5 hPa | - | - | - | - |
| 1788297713 | 20° C | 53% | 1014.5 hPa | - | - | - | - |
| 1788296513 | 20.56° C | 52% | 1014.6 hPa | - | - | - | - |
| 1788295313 | 20.56° C | 52% | 1014.6 hPa | - | - | - | - |
| 1788294113 | 20.56° C | 52% | 1014.6 hPa | - | - | - | - |
| 1788292913 | 20.56° C | 52% | 1014.8 hPa | - | - | - | - |
| 1788291713 | 20.56° C | 52% | 1014.7 hPa | - | - | - | - |
| 1788290513 | 20.56° C | 52% | 1014.5 hPa | - | - | - | - |
* Rain since midnight (hover to see other rain measurements)
** Current wind speed in m/s (hover to see current wind gust speed)